createdAt,value
2022-08-30T00:01:00.747Z,1.95
2022-08-30T00:03:27.500Z,1.65
2022-08-30T00:05:56.379Z,1.50
2022-08-30T00:08:23.088Z,1.80
2022-08-30T00:10:51.147Z,1.88
2022-08-30T00:13:18.743Z,1.80
2022-08-30T00:15:45.391Z,1.80
2022-08-30T00:18:12.003Z,1.75
2022-08-30T00:20:38.681Z,1.55
2022-08-30T00:23:05.760Z,1.83
2022-08-30T00:25:32.343Z,2.10
2022-08-30T00:27:58.917Z,1.63
2022-08-30T00:30:25.433Z,1.80
2022-08-30T00:32:51.957Z,1.92
2022-08-30T00:35:20.509Z,1.80
2022-08-30T00:37:47.666Z,2.35
2022-08-30T00:40:15.932Z,1.88
2022-08-30T00:42:44.131Z,1.90
2022-08-30T00:45:22.591Z,2.10
2022-08-30T00:47:49.230Z,2.03
2022-08-30T00:50:19.500Z,2.10
2022-08-30T00:52:48.243Z,2.05
2022-08-30T00:55:16.908Z,2.13
2022-08-30T00:57:44.406Z,1.95
2022-08-30T01:00:12.065Z,1.88
2022-08-30T01:02:38.747Z,1.83
2022-08-30T01:05:06.995Z,2.08
2022-08-30T01:07:35.097Z,1.73
2022-08-30T01:10:02.605Z,2.08
2022-08-30T01:12:30.010Z,1.73
2022-08-30T01:14:57.528Z,1.90
2022-08-30T01:17:25.131Z,2.05
2022-08-30T01:19:56.164Z,2.10
2022-08-30T01:22:32.444Z,2.10
2022-08-30T01:25:00.189Z,2.13
2022-08-30T01:27:27.858Z,2.20
2022-08-30T01:29:54.710Z,2.10
2022-08-30T01:32:29.033Z,2.15
2022-08-30T01:34:56.871Z,2.38
2022-08-30T01:37:31.972Z,1.90
2022-08-30T01:39:59.183Z,1.95
2022-08-30T01:42:25.884Z,2.00
2022-08-30T01:44:54.547Z,1.98
2022-08-30T01:47:21.302Z,2.38
2022-08-30T01:49:48.210Z,1.95
2022-08-30T01:52:15.819Z,1.92
2022-08-30T01:54:44.613Z,2.38
2022-08-30T01:57:14.219Z,2.00
2022-08-30T01:59:43.396Z,2.33
2022-08-30T02:02:10.242Z,2.55
2022-08-30T02:04:36.816Z,2.03
2022-08-30T02:07:04.419Z,2.25
2022-08-30T02:09:30.935Z,2.17
2022-08-30T02:11:57.897Z,2.45
2022-08-30T02:14:24.406Z,2.15
2022-08-30T02:16:51.070Z,2.30
2022-08-30T02:19:18.014Z,2.08
2022-08-30T02:21:44.689Z,2.25
2022-08-30T02:24:11.196Z,2.10
2022-08-30T02:26:37.798Z,2.15
2022-08-30T02:29:05.833Z,2.38
2022-08-30T02:31:32.496Z,2.00
2022-08-30T02:33:59.005Z,2.10
2022-08-30T02:36:25.499Z,2.47
2022-08-30T02:38:52.470Z,2.10
2022-08-30T02:41:19.806Z,2.13
2022-08-30T02:43:46.748Z,2.05
2022-08-30T02:46:13.306Z,2.13
2022-08-30T02:48:39.980Z,2.30
2022-08-30T02:51:09.638Z,2.13
2022-08-30T02:53:38.083Z,2.08
2022-08-30T02:56:04.818Z,2.40
2022-08-30T02:58:31.324Z,2.15
2022-08-30T03:00:57.932Z,2.17
2022-08-30T03:03:24.801Z,2.00
2022-08-30T03:05:51.333Z,1.95
2022-08-30T03:08:17.892Z,2.03
2022-08-30T03:10:44.417Z,2.30
2022-08-30T03:13:11.722Z,2.25
2022-08-30T03:15:39.356Z,2.17
2022-08-30T03:18:06.314Z,2.10
2022-08-30T03:20:35.081Z,2.25
2022-08-30T03:23:02.110Z,2.13
2022-08-30T03:25:29.207Z,2.17
2022-08-30T03:27:55.698Z,2.10
2022-08-30T03:30:22.205Z,2.20
2022-08-30T03:32:48.806Z,1.92
2022-08-30T03:35:18.174Z,2.53
2022-08-30T03:37:46.103Z,2.10
2022-08-30T03:40:14.699Z,1.70
2022-08-30T03:42:43.320Z,2.33
2022-08-30T03:45:11.519Z,2.22
2022-08-30T03:47:38.032Z,2.30
2022-08-30T03:50:08.212Z,2.25
2022-08-30T03:52:34.775Z,2.42
2022-08-30T03:55:01.367Z,1.85
2022-08-30T03:57:28.638Z,2.30
2022-08-30T03:59:55.181Z,2.00
2022-08-30T04:02:21.759Z,2.38
2022-08-30T04:04:48.648Z,2.15
2022-08-30T04:07:15.138Z,2.22
2022-08-30T04:09:41.872Z,2.15
2022-08-30T04:12:08.435Z,2.35
2022-08-30T04:14:34.939Z,1.90
2022-08-30T04:17:01.495Z,2.28
2022-08-30T04:19:27.995Z,2.13
2022-08-30T04:21:57.233Z,2.33
2022-08-30T04:24:23.793Z,1.98
2022-08-30T04:26:50.288Z,1.95
2022-08-30T04:29:17.685Z,2.28
2022-08-30T04:31:45.270Z,2.00
2022-08-30T04:34:12.834Z,2.20
2022-08-30T04:36:39.345Z,1.98
2022-08-30T04:39:06.260Z,2.25
2022-08-30T04:41:32.921Z,2.13
2022-08-30T04:44:03.466Z,1.98
2022-08-30T04:46:30.397Z,2.20
2022-08-30T04:48:56.906Z,2.40
2022-08-30T04:51:23.395Z,2.28
2022-08-30T04:53:50.007Z,2.42
2022-08-30T04:56:22.196Z,2.20
2022-08-30T04:58:50.433Z,1.95
2022-08-30T05:01:20.493Z,2.00
2022-08-30T05:03:51.020Z,2.40
2022-08-30T05:06:17.662Z,1.92
2022-08-30T05:08:46.342Z,1.92
2022-08-30T05:11:14.760Z,2.08
2022-08-30T05:13:41.449Z,2.00
2022-08-30T05:16:08.367Z,2.17
2022-08-30T05:18:35.677Z,1.80
2022-08-30T05:21:05.018Z,2.00
2022-08-30T05:23:31.748Z,2.05
2022-08-30T05:25:58.274Z,1.80
2022-08-30T05:28:26.319Z,2.05
2022-08-30T05:30:52.989Z,2.05
2022-08-30T05:33:19.581Z,1.92
2022-08-30T05:35:46.137Z,1.90
2022-08-30T05:38:12.657Z,1.90
2022-08-30T05:40:43.951Z,1.90
2022-08-30T05:43:11.285Z,1.75
2022-08-30T05:45:38.390Z,1.90
2022-08-30T05:48:05.019Z,1.90
2022-08-30T05:50:31.547Z,1.60
2022-08-30T05:52:58.041Z,2.03
2022-08-30T05:55:24.539Z,1.90
2022-08-30T05:57:51.067Z,1.63
2022-08-30T06:00:18.164Z,1.60
2022-08-30T06:02:44.747Z,1.42
2022-08-30T06:05:13.054Z,1.50
2022-08-30T06:07:40.897Z,1.90
2022-08-30T06:10:07.457Z,1.50
2022-08-30T06:12:34.102Z,1.63
2022-08-30T06:15:00.643Z,1.40
2022-08-30T06:17:27.199Z,1.13
2022-08-30T06:19:53.686Z,1.58
2022-08-30T06:22:20.176Z,1.67
2022-08-30T06:25:01.909Z,1.35
2022-08-30T06:27:28.459Z,1.38
2022-08-30T06:29:54.966Z,1.25
2022-08-30T06:32:21.879Z,1.85
2022-08-30T06:34:48.479Z,1.17
2022-08-30T06:37:29.033Z,1.50
2022-08-30T06:39:57.911Z,1.55
2022-08-30T06:42:30.452Z,1.30
2022-08-30T06:45:00.551Z,1.27
2022-08-30T06:47:28.448Z,1.25
2022-08-30T06:49:55.016Z,1.25
2022-08-30T06:52:21.582Z,1.27
2022-08-30T06:54:48.097Z,1.50
2022-08-30T06:57:14.613Z,1.42
2022-08-30T06:59:41.140Z,1.40
2022-08-30T07:02:08.349Z,1.50
2022-08-30T07:04:35.066Z,1.52
2022-08-30T07:07:01.604Z,1.50
2022-08-30T07:09:28.135Z,1.20
2022-08-30T07:11:55.291Z,1.35
2022-08-30T07:14:22.213Z,1.20
2022-08-30T07:16:50.920Z,1.52
2022-08-30T07:19:20.556Z,1.50
2022-08-30T07:21:48.891Z,1.10
2022-08-30T07:24:16.322Z,1.25
2022-08-30T07:26:47.140Z,1.67
2022-08-30T07:29:13.648Z,1.00
2022-08-30T07:31:40.473Z,1.10
2022-08-30T07:34:07.747Z,1.30
2022-08-30T07:36:35.807Z,1.30
2022-08-30T07:39:02.878Z,1.20
2022-08-30T07:41:35.586Z,1.33
2022-08-30T07:44:02.335Z,1.40
2022-08-30T07:46:28.955Z,1.33
2022-08-30T07:48:55.887Z,1.30
2022-08-30T07:51:24.683Z,1.10
2022-08-30T07:53:51.539Z,1.50
2022-08-30T07:56:18.353Z,1.30
2022-08-30T07:58:44.835Z,1.20
2022-08-30T08:01:12.870Z,1.42
2022-08-30T08:03:40.684Z,1.02
2022-08-30T08:06:08.785Z,1.15
2022-08-30T08:08:36.458Z,0.82
2022-08-30T08:11:10.690Z,1.05
2022-08-30T08:13:53.605Z,1.10
2022-08-30T08:16:25.829Z,1.00
2022-08-30T08:18:53.308Z,1.10
2022-08-30T08:21:20.357Z,1.17
2022-08-30T08:23:46.968Z,0.82
2022-08-30T08:26:13.608Z,1.20
2022-08-30T08:28:40.106Z,1.02
2022-08-30T08:31:17.739Z,0.95
2022-08-30T08:33:44.515Z,1.10
2022-08-30T08:36:11.039Z,1.10
2022-08-30T08:38:37.849Z,0.80
2022-08-30T08:41:23.058Z,1.50
2022-08-30T08:43:49.580Z,1.20
2022-08-30T08:46:52.444Z,0.90
2022-08-30T08:49:18.956Z,1.00
2022-08-30T08:52:04.060Z,1.30
2022-08-30T08:54:47.269Z,1.40
2022-08-30T08:57:16.560Z,0.77
2022-08-30T08:59:44.924Z,1.02
2022-08-30T09:02:37.792Z,1.00
2022-08-30T09:05:04.639Z,1.10
2022-08-30T09:07:37.510Z,1.25
2022-08-30T09:10:04.506Z,0.95
2022-08-30T09:12:31.012Z,1.00
2022-08-30T09:15:25.115Z,1.10
2022-08-30T09:18:01.888Z,1.10
2022-08-30T09:20:47.110Z,0.90
2022-08-30T09:23:20.768Z,0.98
2022-08-30T09:28:34.147Z,0.90
2022-08-30T09:31:17.484Z,1.02
2022-08-30T09:34:08.216Z,0.80
2022-08-30T09:36:44.514Z,1.13
2022-08-30T09:39:27.592Z,0.80
2022-08-30T09:41:54.969Z,0.82
2022-08-30T09:44:23.283Z,0.88
2022-08-30T09:46:51.287Z,1.13
2022-08-30T09:49:41.329Z,0.82
2022-08-30T09:52:12.529Z,0.90
2022-08-30T09:54:49.244Z,0.77
2022-08-30T09:57:33.833Z,0.90
2022-08-30T10:00:23.535Z,0.90
2022-08-30T10:03:04.351Z,0.98
2022-08-30T10:05:45.565Z,0.95
2022-08-30T10:08:19.755Z,0.90
2022-08-30T10:10:56.387Z,0.95
2022-08-30T10:13:33.793Z,1.15
2022-08-30T10:16:25.237Z,1.10
2022-08-30T10:19:11.091Z,0.98
2022-08-30T10:21:59.354Z,1.10
2022-08-30T10:24:36.255Z,1.00
2022-08-30T10:27:07.810Z,0.90
2022-08-30T10:29:42.511Z,0.80
2022-08-30T10:32:24.723Z,0.77
2022-08-30T10:35:14.307Z,0.90
2022-08-30T10:37:51.457Z,0.82
2022-08-30T10:40:46.083Z,0.95
2022-08-30T10:43:31.770Z,0.88
2022-08-30T10:46:02.609Z,0.90
2022-08-30T10:48:35.685Z,0.98
2022-08-30T10:51:28.054Z,0.90
2022-08-30T10:53:57.897Z,0.90
2022-08-30T10:56:26.211Z,0.90
2022-08-30T10:58:54.439Z,0.85
2022-08-30T11:01:53.170Z,0.90
2022-08-30T11:04:51.940Z,1.00
2022-08-30T11:07:52.135Z,0.93
2022-08-30T11:10:32.258Z,1.40
2022-08-30T11:13:13.280Z,1.25
2022-08-30T11:15:59.951Z,0.75
2022-08-30T11:18:29.827Z,0.90
2022-08-30T11:21:21.375Z,1.00
2022-08-30T11:24:02.670Z,1.00
2022-08-30T11:26:50.604Z,0.85
2022-08-30T11:29:26.075Z,0.75
2022-08-30T11:31:53.819Z,0.93
2022-08-30T11:34:48.599Z,0.90
2022-08-30T11:37:43.108Z,0.80
2022-08-30T11:40:44.317Z,1.02
2022-08-30T11:43:36.850Z,1.10
2022-08-30T11:46:28.510Z,0.80
2022-08-30T11:49:10.035Z,1.00
2022-08-30T11:52:27.211Z,0.90
2022-08-30T11:55:20.872Z,0.93
2022-08-30T11:58:13.088Z,0.88
2022-08-30T12:00:51.338Z,0.77
2022-08-30T12:03:22.356Z,1.05
2022-08-30T12:06:16.503Z,0.65
2022-08-30T12:08:48.115Z,0.85
2022-08-30T12:11:18.878Z,0.80
2022-08-30T12:13:45.251Z,0.80
2022-08-30T12:16:14.894Z,0.88
2022-08-30T12:18:52.889Z,0.77
2022-08-30T12:21:21.539Z,0.77
2022-08-30T12:23:53.702Z,0.95
2022-08-30T12:26:26.099Z,0.95
2022-08-30T12:29:07.687Z,0.90
2022-08-30T12:31:49.214Z,0.90
2022-08-30T12:34:21.547Z,1.00
2022-08-30T12:37:04.542Z,1.73
2022-08-30T12:39:43.394Z,0.90
2022-08-30T12:42:23.443Z,0.80
2022-08-30T12:44:57.768Z,0.70
2022-08-30T12:47:33.194Z,1.00
2022-08-30T12:50:00.188Z,0.93
2022-08-30T12:52:26.616Z,0.60
2022-08-30T12:54:54.735Z,0.77
2022-08-30T12:57:39.529Z,0.80
2022-08-30T13:00:09.430Z,0.65
2022-08-30T13:02:53.608Z,0.80
2022-08-30T13:05:45.515Z,0.55
2022-08-30T13:11:01.441Z,0.70
2022-08-30T13:13:43.601Z,0.88
2022-08-30T13:16:20.572Z,0.80
2022-08-30T13:19:16.497Z,0.60
2022-08-30T13:21:54.622Z,0.70
2022-08-30T13:24:25.195Z,0.70
2022-08-30T13:26:54.277Z,0.80
2022-08-30T13:29:25.960Z,0.85
2022-08-30T13:31:52.664Z,0.57
2022-08-30T13:34:22.411Z,0.63
2022-08-30T13:36:53.199Z,0.68
2022-08-30T13:39:21.843Z,0.65
2022-08-30T13:41:48.772Z,0.80
2022-08-30T13:44:15.905Z,0.77
2022-08-30T13:46:51.060Z,0.57
2022-08-30T13:49:46.887Z,0.68
2022-08-30T13:52:21.761Z,0.70
2022-08-30T13:54:53.235Z,0.60
2022-08-30T14:00:14.506Z,0.60
2022-08-30T14:02:46.450Z,0.57
2022-08-30T14:05:37.573Z,0.80
2022-08-30T14:08:05.958Z,0.60
2022-08-30T14:10:33.217Z,0.60
2022-08-30T14:13:08.766Z,0.52
2022-08-30T14:15:38.908Z,0.70
2022-08-30T14:18:06.480Z,0.57
2022-08-30T14:20:33.278Z,0.68
2022-08-30T14:22:59.771Z,0.60
2022-08-30T14:25:28.564Z,0.50
2022-08-30T14:27:58.382Z,0.50
2022-08-30T14:30:25.191Z,0.50
2022-08-30T14:32:51.851Z,0.60
2022-08-30T14:35:20.310Z,0.63
2022-08-30T14:37:48.223Z,0.68
2022-08-30T14:40:15.475Z,0.60
2022-08-30T14:42:42.188Z,0.70
2022-08-30T14:45:09.678Z,0.73
2022-08-30T14:47:36.195Z,0.68
2022-08-30T14:50:02.881Z,0.50
2022-08-30T14:52:29.656Z,0.60
2022-08-30T14:55:03.727Z,0.40
2022-08-30T14:57:32.702Z,0.60
2022-08-30T14:59:59.678Z,0.60
2022-08-30T15:02:27.154Z,0.60
2022-08-30T15:04:53.779Z,0.60
2022-08-30T15:07:20.267Z,0.52
2022-08-30T15:09:46.839Z,0.60
2022-08-30T15:12:13.474Z,0.75
2022-08-30T15:14:40.199Z,0.50
2022-08-30T15:17:06.712Z,0.68
2022-08-30T15:19:33.544Z,0.60
2022-08-30T15:22:05.372Z,0.60
2022-08-30T15:24:32.427Z,0.57
2022-08-30T15:27:00.119Z,0.40
2022-08-30T15:29:27.498Z,0.40
2022-08-30T15:31:57.327Z,0.50
2022-08-30T15:34:26.241Z,0.50
2022-08-30T15:36:54.739Z,0.85
2022-08-30T15:39:21.253Z,0.47
2022-08-30T15:41:56.065Z,0.45
2022-08-30T15:44:23.750Z,0.63
2022-08-30T15:46:50.487Z,0.52
2022-08-30T15:49:20.150Z,0.47
2022-08-30T15:51:49.028Z,0.60
2022-08-30T15:54:20.607Z,0.50
2022-08-30T15:56:48.144Z,0.80
2022-08-30T15:59:15.364Z,0.50
2022-08-30T16:01:43.098Z,0.55
2022-08-30T16:04:10.711Z,0.70
2022-08-30T16:06:37.765Z,0.70
2022-08-30T16:09:06.934Z,0.77
2022-08-30T16:11:34.170Z,0.70
2022-08-30T16:14:01.473Z,0.80
2022-08-30T16:16:28.220Z,0.50
2022-08-30T16:18:55.335Z,0.50
2022-08-30T16:21:28.176Z,0.80
2022-08-30T16:23:59.593Z,0.70
2022-08-30T16:26:27.953Z,0.50
2022-08-30T16:28:54.704Z,0.47
2022-08-30T16:31:21.843Z,0.50
2022-08-30T16:33:52.414Z,0.52
2022-08-30T16:36:20.525Z,0.47
2022-08-30T16:38:47.763Z,0.70
2022-08-30T16:41:21.069Z,0.60
2022-08-30T16:43:49.425Z,0.60
2022-08-30T16:46:17.395Z,0.95
2022-08-30T16:48:45.166Z,0.38
2022-08-30T16:51:14.737Z,0.55
2022-08-30T16:53:42.337Z,0.70
2022-08-30T16:56:12.754Z,0.60
2022-08-30T16:58:40.023Z,0.60
2022-08-30T17:01:06.635Z,0.47
2022-08-30T17:03:33.506Z,0.70
2022-08-30T17:06:00.353Z,0.60
2022-08-30T17:08:26.890Z,0.50
2022-08-30T17:10:53.544Z,0.60
2022-08-30T17:13:20.277Z,0.70
2022-08-30T17:15:47.979Z,0.60
2022-08-30T17:18:17.200Z,0.70
2022-08-30T17:20:45.307Z,0.50
2022-08-30T17:23:12.147Z,0.60
2022-08-30T17:25:39.118Z,0.80
2022-08-30T17:28:07.980Z,0.50
2022-08-30T17:30:35.116Z,0.80
2022-08-30T17:33:01.868Z,0.70
2022-08-30T17:35:28.660Z,0.50
2022-08-30T17:37:55.165Z,0.68
2022-08-30T17:40:22.067Z,0.70
2022-08-30T17:42:48.627Z,0.60
2022-08-30T17:45:17.125Z,0.70
2022-08-30T17:47:44.218Z,0.50
2022-08-30T17:50:11.346Z,0.50
2022-08-30T17:52:38.477Z,0.60
2022-08-30T17:55:06.858Z,0.60
2022-08-30T17:57:33.637Z,0.60
2022-08-30T18:00:00.769Z,0.70
2022-08-30T18:02:29.653Z,0.63
2022-08-30T18:04:58.131Z,0.63
2022-08-30T18:07:25.726Z,0.85
2022-08-30T18:09:53.624Z,0.73
2022-08-30T18:12:20.980Z,0.60
2022-08-30T18:14:47.516Z,0.70
2022-08-30T18:17:19.681Z,0.75
2022-08-30T18:19:46.842Z,0.60
2022-08-30T18:22:14.060Z,0.60
2022-08-30T18:24:40.650Z,0.70
2022-08-30T18:27:07.227Z,0.55
2022-08-30T18:29:33.868Z,0.70
2022-08-30T18:32:01.446Z,0.60
2022-08-30T18:34:28.305Z,0.70
2022-08-30T18:36:55.506Z,0.60
2022-08-30T18:39:22.179Z,0.70
2022-08-30T18:41:49.337Z,0.60
2022-08-30T18:44:27.852Z,0.73
2022-08-30T18:46:57.241Z,0.68
2022-08-30T18:49:25.180Z,0.70
2022-08-30T18:51:51.724Z,0.70
2022-08-30T18:54:18.725Z,0.80
2022-08-30T18:56:45.430Z,0.80
2022-08-30T18:59:12.541Z,0.80
2022-08-30T19:01:39.079Z,0.95
2022-08-30T19:04:07.090Z,0.80
2022-08-30T19:06:34.445Z,0.77
2022-08-30T19:09:00.997Z,0.73
2022-08-30T19:11:27.919Z,0.95
2022-08-30T19:13:54.983Z,0.70
2022-08-30T19:16:21.928Z,0.75
2022-08-30T19:18:48.803Z,0.65
2022-08-30T19:21:15.417Z,0.70
2022-08-30T19:23:43.514Z,0.80
2022-08-30T19:26:10.765Z,0.70
2022-08-30T19:28:37.746Z,0.70
2022-08-30T19:31:04.710Z,1.00
2022-08-30T19:33:35.685Z,0.90
2022-08-30T19:36:05.120Z,0.80
2022-08-30T19:38:31.728Z,0.80
2022-08-30T19:41:01.887Z,0.73
2022-08-30T19:43:30.706Z,1.08
2022-08-30T19:46:00.663Z,0.93
2022-08-30T19:48:32.721Z,1.00
2022-08-30T19:51:06.498Z,0.90
2022-08-30T19:53:33.485Z,0.82
2022-08-30T19:56:00.167Z,0.90
2022-08-30T19:58:26.867Z,0.70
2022-08-30T20:01:00.853Z,1.20
2022-08-30T20:03:38.073Z,0.90
2022-08-30T20:06:06.940Z,0.75
2022-08-30T20:08:33.503Z,1.02
2022-08-30T20:11:00.009Z,0.93
2022-08-30T20:13:26.750Z,0.90
2022-08-30T20:15:55.942Z,0.90
2022-08-30T20:18:25.879Z,1.08
2022-08-30T20:20:53.239Z,1.27
2022-08-30T20:23:23.298Z,1.10
2022-08-30T20:25:52.321Z,1.27
2022-08-30T20:28:20.505Z,1.25
2022-08-30T20:30:48.095Z,1.10
2022-08-30T20:33:14.630Z,1.00
2022-08-30T20:35:48.335Z,1.13
2022-08-30T20:38:21.150Z,1.15
2022-08-30T20:40:51.146Z,1.20
2022-08-30T20:43:20.107Z,1.10
2022-08-30T20:45:47.434Z,1.40
2022-08-30T20:48:14.631Z,0.95
2022-08-30T20:50:41.615Z,1.10
2022-08-30T20:53:08.659Z,1.20
2022-08-30T20:55:35.335Z,1.17
2022-08-30T20:58:01.822Z,1.02
2022-08-30T21:00:28.361Z,1.20
2022-08-30T21:02:54.920Z,1.10
2022-08-30T21:05:21.604Z,1.40
2022-08-30T21:07:48.151Z,1.50
2022-08-30T21:10:14.995Z,1.30
2022-08-30T21:12:42.725Z,1.30
2022-08-30T21:15:26.951Z,1.17
2022-08-30T21:17:56.179Z,1.02
2022-08-30T21:20:23.322Z,1.00
2022-08-30T21:22:49.891Z,1.15
2022-08-30T21:25:16.397Z,1.58
2022-08-30T21:27:43.701Z,1.10
2022-08-30T21:30:12.439Z,1.17
2022-08-30T21:32:41.957Z,1.42
2022-08-30T21:35:27.959Z,1.30
2022-08-30T21:37:54.627Z,1.50
2022-08-30T21:40:21.578Z,1.40
2022-08-30T21:42:48.316Z,1.50
2022-08-30T21:45:15.295Z,1.65
2022-08-30T21:47:42.358Z,2.33
2022-08-30T21:50:09.814Z,2.40
2022-08-30T21:52:36.347Z,2.67
2022-08-30T21:55:03.766Z,3.28
2022-08-30T21:57:31.165Z,2.55
2022-08-30T21:59:57.738Z,2.65
2022-08-30T22:02:24.287Z,2.50
2022-08-30T22:04:50.831Z,2.10
2022-08-30T22:07:17.326Z,2.00
2022-08-30T22:09:44.079Z,1.83
2022-08-30T22:12:10.708Z,1.95
2022-08-30T22:14:37.785Z,1.90
2022-08-30T22:17:05.442Z,1.45
2022-08-30T22:19:33.704Z,1.60
2022-08-30T22:22:00.640Z,1.30
2022-08-30T22:24:29.293Z,1.08
2022-08-30T22:26:59.071Z,1.20
2022-08-30T22:29:25.577Z,1.00
2022-08-30T22:31:52.199Z,1.10
2022-08-30T22:34:18.745Z,1.10
2022-08-30T22:36:45.689Z,1.00
2022-08-30T22:39:13.258Z,1.20
2022-08-30T22:41:42.859Z,1.33
2022-08-30T22:44:09.725Z,0.80
2022-08-30T22:46:37.780Z,1.10
2022-08-30T22:49:05.914Z,1.20
2022-08-30T22:51:33.571Z,1.00
2022-08-30T22:54:01.165Z,1.00
2022-08-30T22:56:28.400Z,1.10
2022-08-30T22:58:55.662Z,0.90
2022-08-30T23:01:26.742Z,0.90
2022-08-30T23:03:57.291Z,0.90
2022-08-30T23:06:23.935Z,1.20
2022-08-30T23:08:50.507Z,1.00
2022-08-30T23:11:17.682Z,1.00
2022-08-30T23:13:44.741Z,0.95
2022-08-30T23:16:13.033Z,1.20
2022-08-30T23:18:41.115Z,1.00
2022-08-30T23:21:15.919Z,0.95
2022-08-30T23:24:01.456Z,1.02
2022-08-30T23:26:46.399Z,0.98
2022-08-30T23:29:31.789Z,1.00
2022-08-30T23:32:16.929Z,1.08
2022-08-30T23:35:02.301Z,1.05
2022-08-30T23:37:47.295Z,1.10
2022-08-30T23:40:37.964Z,1.10
2022-08-30T23:43:23.281Z,0.90
2022-08-30T23:46:08.473Z,0.90
2022-08-30T23:48:53.707Z,1.20
2022-08-30T23:51:38.953Z,1.17
2022-08-30T23:54:23.939Z,0.90
2022-08-30T23:57:09.551Z,0.98
2022-08-30T23:59:54.640Z,0.90
